sensor_id;sensor_type;location;lat;lon;timestamp;P1;durP1;ratioP1;P2;durP2;ratioP2
50281;SDS011;36176;51.506;10.272;2023-04-06T00:02:22;3.70;;;3.40;;
50281;SDS011;36176;51.506;10.272;2023-04-06T00:04:50;4.33;;;3.90;;
50281;SDS011;36176;51.506;10.272;2023-04-06T00:07:17;4.20;;;3.80;;
50281;SDS011;36176;51.506;10.272;2023-04-06T00:09:44;4.03;;;3.50;;
50281;SDS011;36176;51.506;10.272;2023-04-06T00:12:11;4.00;;;3.50;;
50281;SDS011;36176;51.506;10.272;2023-04-06T00:14:38;4.20;;;3.90;;
50281;SDS011;36176;51.506;10.272;2023-04-06T00:17:05;3.80;;;3.50;;
50281;SDS011;36176;51.506;10.272;2023-04-06T00:19:32;3.60;;;3.30;;
50281;SDS011;36176;51.506;10.272;2023-04-06T00:21:59;3.80;;;3.40;;
50281;SDS011;36176;51.506;10.272;2023-04-06T00:24:26;3.80;;;3.37;;
50281;SDS011;36176;51.506;10.272;2023-04-06T00:26:53;3.90;;;3.60;;
50281;SDS011;36176;51.506;10.272;2023-04-06T00:29:20;5.07;;;4.57;;
50281;SDS011;36176;51.506;10.272;2023-04-06T00:31:47;4.20;;;3.70;;
50281;SDS011;36176;51.506;10.272;2023-04-06T00:34:14;4.17;;;3.77;;
50281;SDS011;36176;51.506;10.272;2023-04-06T00:36:42;4.70;;;3.87;;
50281;SDS011;36176;51.506;10.272;2023-04-06T00:39:09;5.37;;;4.10;;
50281;SDS011;36176;51.506;10.272;2023-04-06T00:41:36;4.60;;;3.93;;
50281;SDS011;36176;51.506;10.272;2023-04-06T00:44:04;4.53;;;4.13;;
50281;SDS011;36176;51.506;10.272;2023-04-06T00:46:31;5.33;;;4.30;;
50281;SDS011;36176;51.506;10.272;2023-04-06T00:48:58;4.50;;;4.10;;
50281;SDS011;36176;51.506;10.272;2023-04-06T00:51:25;4.37;;;3.97;;
50281;SDS011;36176;51.506;10.272;2023-04-06T00:53:52;4.77;;;4.27;;
50281;SDS011;36176;51.506;10.272;2023-04-06T00:56:19;4.67;;;3.77;;
50281;SDS011;36176;51.506;10.272;2023-04-06T00:58:46;4.87;;;3.97;;
50281;SDS011;36176;51.506;10.272;2023-04-06T01:01:13;4.90;;;4.40;;
50281;SDS011;36176;51.506;10.272;2023-04-06T01:03:40;5.83;;;4.80;;
50281;SDS011;36176;51.506;10.272;2023-04-06T01:06:08;6.23;;;5.57;;
50281;SDS011;36176;51.506;10.272;2023-04-06T01:08:36;5.93;;;4.90;;
50281;SDS011;36176;51.506;10.272;2023-04-06T01:11:03;5.40;;;4.90;;
50281;SDS011;36176;51.506;10.272;2023-04-06T01:13:30;6.53;;;5.70;;
50281;SDS011;36176;51.506;10.272;2023-04-06T01:15:57;7.63;;;5.07;;
50281;SDS011;36176;51.506;10.272;2023-04-06T01:18:27;7.83;;;4.40;;
50281;SDS011;36176;51.506;10.272;2023-04-06T01:20:55;5.03;;;4.53;;
50281;SDS011;36176;51.506;10.272;2023-04-06T01:23:22;4.63;;;4.23;;
50281;SDS011;36176;51.506;10.272;2023-04-06T01:25:49;4.10;;;3.80;;
50281;SDS011;36176;51.506;10.272;2023-04-06T01:28:16;5.03;;;4.00;;
50281;SDS011;36176;51.506;10.272;2023-04-06T01:30:43;4.93;;;4.47;;
50281;SDS011;36176;51.506;10.272;2023-04-06T01:33:10;4.80;;;4.20;;
50281;SDS011;36176;51.506;10.272;2023-04-06T01:35:37;4.70;;;4.30;;
50281;SDS011;36176;51.506;10.272;2023-04-06T01:38:04;6.83;;;4.70;;
50281;SDS011;36176;51.506;10.272;2023-04-06T01:40:31;4.77;;;4.37;;
50281;SDS011;36176;51.506;10.272;2023-04-06T01:42:58;4.97;;;4.50;;
50281;SDS011;36176;51.506;10.272;2023-04-06T01:45:25;5.87;;;5.00;;
50281;SDS011;36176;51.506;10.272;2023-04-06T01:47:52;5.77;;;4.97;;
50281;SDS011;36176;51.506;10.272;2023-04-06T01:50:19;5.73;;;4.67;;
50281;SDS011;36176;51.506;10.272;2023-04-06T01:52:46;5.27;;;4.77;;
50281;SDS011;36176;51.506;10.272;2023-04-06T01:55:13;5.40;;;4.90;;
50281;SDS011;36176;51.506;10.272;2023-04-06T01:57:40;7.73;;;6.30;;
50281;SDS011;36176;51.506;10.272;2023-04-06T02:00:07;6.10;;;4.87;;
50281;SDS011;36176;51.506;10.272;2023-04-06T02:02:34;5.57;;;4.93;;
50281;SDS011;36176;51.506;10.272;2023-04-06T02:05:02;5.63;;;5.13;;
50281;SDS011;36176;51.506;10.272;2023-04-06T02:07:29;5.37;;;4.87;;
50281;SDS011;36176;51.506;10.272;2023-04-06T02:09:56;4.80;;;4.40;;
50281;SDS011;36176;51.506;10.272;2023-04-06T02:12:23;5.23;;;4.73;;
50281;SDS011;36176;51.506;10.272;2023-04-06T02:14:50;5.67;;;5.17;;
50281;SDS011;36176;51.506;10.272;2023-04-06T02:17:17;5.03;;;4.57;;
50281;SDS011;36176;51.506;10.272;2023-04-06T02:19:44;4.90;;;4.40;;
50281;SDS011;36176;51.506;10.272;2023-04-06T02:22:11;4.93;;;4.50;;
50281;SDS011;36176;51.506;10.272;2023-04-06T02:24:38;4.50;;;4.10;;
50281;SDS011;36176;51.506;10.272;2023-04-06T02:27:05;9.23;;;6.17;;
50281;SDS011;36176;51.506;10.272;2023-04-06T02:29:32;5.63;;;4.70;;
50281;SDS011;36176;51.506;10.272;2023-04-06T02:31:59;6.03;;;5.53;;
50281;SDS011;36176;51.506;10.272;2023-04-06T02:34:26;5.33;;;4.80;;
50281;SDS011;36176;51.506;10.272;2023-04-06T02:36:53;5.90;;;5.30;;
50281;SDS011;36176;51.506;10.272;2023-04-06T02:39:20;7.00;;;6.30;;
50281;SDS011;36176;51.506;10.272;2023-04-06T02:41:47;5.50;;;5.00;;
50281;SDS011;36176;51.506;10.272;2023-04-06T02:44:14;5.63;;;4.73;;
50281;SDS011;36176;51.506;10.272;2023-04-06T02:46:41;12.50;;;5.93;;
50281;SDS011;36176;51.506;10.272;2023-04-06T02:49:08;6.30;;;5.00;;
50281;SDS011;36176;51.506;10.272;2023-04-06T02:51:36;5.83;;;4.90;;
50281;SDS011;36176;51.506;10.272;2023-04-06T02:54:03;6.10;;;5.33;;
50281;SDS011;36176;51.506;10.272;2023-04-06T02:56:30;5.67;;;5.17;;
50281;SDS011;36176;51.506;10.272;2023-04-06T02:58:58;4.90;;;4.43;;
50281;SDS011;36176;51.506;10.272;2023-04-06T03:01:25;5.47;;;4.87;;
50281;SDS011;36176;51.506;10.272;2023-04-06T03:03:53;6.63;;;5.37;;
50281;SDS011;36176;51.506;10.272;2023-04-06T03:06:20;5.60;;;5.00;;
50281;SDS011;36176;51.506;10.272;2023-04-06T03:08:46;5.77;;;5.27;;
50281;SDS011;36176;51.506;10.272;2023-04-06T03:11:13;7.03;;;6.03;;
50281;SDS011;36176;51.506;10.272;2023-04-06T03:13:40;8.10;;;5.23;;
50281;SDS011;36176;51.506;10.272;2023-04-06T03:16:07;6.23;;;4.77;;
50281;SDS011;36176;51.506;10.272;2023-04-06T03:18:35;7.03;;;6.33;;
50281;SDS011;36176;51.506;10.272;2023-04-06T03:21:02;7.57;;;6.57;;
50281;SDS011;36176;51.506;10.272;2023-04-06T03:23:29;6.73;;;5.20;;
50281;SDS011;36176;51.506;10.272;2023-04-06T03:25:56;5.80;;;5.03;;
50281;SDS011;36176;51.506;10.272;2023-04-06T03:28:22;8.53;;;5.93;;
50281;SDS011;36176;51.506;10.272;2023-04-06T03:30:49;6.00;;;5.40;;
50281;SDS011;36176;51.506;10.272;2023-04-06T03:33:16;6.00;;;5.50;;
50281;SDS011;36176;51.506;10.272;2023-04-06T03:35:44;6.30;;;5.20;;
50281;SDS011;36176;51.506;10.272;2023-04-06T03:38:11;5.87;;;5.37;;
50281;SDS011;36176;51.506;10.272;2023-04-06T03:40:38;5.60;;;5.10;;
50281;SDS011;36176;51.506;10.272;2023-04-06T03:43:04;5.67;;;5.07;;
50281;SDS011;36176;51.506;10.272;2023-04-06T03:45:31;6.07;;;5.47;;
50281;SDS011;36176;51.506;10.272;2023-04-06T03:47:58;6.10;;;4.90;;
50281;SDS011;36176;51.506;10.272;2023-04-06T03:50:25;7.33;;;5.80;;
50281;SDS011;36176;51.506;10.272;2023-04-06T03:52:52;5.33;;;4.83;;
50281;SDS011;36176;51.506;10.272;2023-04-06T03:55:19;6.37;;;5.70;;
50281;SDS011;36176;51.506;10.272;2023-04-06T03:57:46;4.93;;;4.40;;
50281;SDS011;36176;51.506;10.272;2023-04-06T04:00:13;6.17;;;5.57;;
50281;SDS011;36176;51.506;10.272;2023-04-06T04:02:41;5.43;;;4.93;;
50281;SDS011;36176;51.506;10.272;2023-04-06T04:05:08;5.27;;;4.50;;
50281;SDS011;36176;51.506;10.272;2023-04-06T04:07:35;5.63;;;5.10;;
50281;SDS011;36176;51.506;10.272;2023-04-06T04:10:03;6.30;;;5.70;;
50281;SDS011;36176;51.506;10.272;2023-04-06T04:12:30;6.00;;;5.40;;
50281;SDS011;36176;51.506;10.272;2023-04-06T04:14:57;5.30;;;4.80;;
50281;SDS011;36176;51.506;10.272;2023-04-06T04:17:24;5.73;;;5.23;;
50281;SDS011;36176;51.506;10.272;2023-04-06T04:19:51;5.97;;;5.23;;
50281;SDS011;36176;51.506;10.272;2023-04-06T04:22:18;5.67;;;5.17;;
50281;SDS011;36176;51.506;10.272;2023-04-06T04:24:45;6.07;;;5.47;;
50281;SDS011;36176;51.506;10.272;2023-04-06T04:27:12;6.43;;;5.83;;
50281;SDS011;36176;51.506;10.272;2023-04-06T04:29:39;6.10;;;5.53;;
50281;SDS011;36176;51.506;10.272;2023-04-06T04:32:06;6.23;;;5.63;;
50281;SDS011;36176;51.506;10.272;2023-04-06T04:34:33;10.33;;;9.20;;
50281;SDS011;36176;51.506;10.272;2023-04-06T04:37:00;9.53;;;8.33;;
50281;SDS011;36176;51.506;10.272;2023-04-06T04:39:27;8.03;;;7.23;;
50281;SDS011;36176;51.506;10.272;2023-04-06T04:41:54;6.57;;;5.93;;
50281;SDS011;36176;51.506;10.272;2023-04-06T04:44:21;5.63;;;5.13;;
50281;SDS011;36176;51.506;10.272;2023-04-06T04:46:48;6.27;;;5.67;;
50281;SDS011;36176;51.506;10.272;2023-04-06T04:49:17;7.53;;;6.83;;
50281;SDS011;36176;51.506;10.272;2023-04-06T04:51:44;7.17;;;6.20;;
50281;SDS011;36176;51.506;10.272;2023-04-06T04:54:11;5.97;;;5.37;;
50281;SDS011;36176;51.506;10.272;2023-04-06T04:56:38;6.80;;;5.63;;
50281;SDS011;36176;51.506;10.272;2023-04-06T04:59:08;7.40;;;5.83;;
50281;SDS011;36176;51.506;10.272;2023-04-06T05:01:35;5.63;;;5.03;;
50281;SDS011;36176;51.506;10.272;2023-04-06T05:04:20;5.93;;;5.10;;
50281;SDS011;36176;51.506;10.272;2023-04-06T05:06:47;4.80;;;4.40;;
50281;SDS011;36176;51.506;10.272;2023-04-06T05:09:14;5.77;;;5.23;;
50281;SDS011;36176;51.506;10.272;2023-04-06T05:11:41;6.47;;;5.37;;
50281;SDS011;36176;51.506;10.272;2023-04-06T05:14:09;5.47;;;4.97;;
50281;SDS011;36176;51.506;10.272;2023-04-06T05:16:36;6.43;;;5.73;;
50281;SDS011;36176;51.506;10.272;2023-04-06T05:19:03;5.87;;;5.37;;
50281;SDS011;36176;51.506;10.272;2023-04-06T05:21:30;6.93;;;6.07;;
50281;SDS011;36176;51.506;10.272;2023-04-06T05:23:58;5.77;;;5.17;;
50281;SDS011;36176;51.506;10.272;2023-04-06T05:26:25;5.80;;;4.90;;
50281;SDS011;36176;51.506;10.272;2023-04-06T05:28:52;6.10;;;5.30;;
50281;SDS011;36176;51.506;10.272;2023-04-06T05:31:22;4.93;;;4.43;;
50281;SDS011;36176;51.506;10.272;2023-04-06T05:33:49;6.03;;;5.40;;
50281;SDS011;36176;51.506;10.272;2023-04-06T05:36:20;5.80;;;5.27;;
50281;SDS011;36176;51.506;10.272;2023-04-06T05:38:47;5.70;;;5.20;;
50281;SDS011;36176;51.506;10.272;2023-04-06T05:41:14;5.57;;;5.07;;
50281;SDS011;36176;51.506;10.272;2023-04-06T05:43:41;7.20;;;5.83;;
50281;SDS011;36176;51.506;10.272;2023-04-06T05:46:08;7.80;;;6.20;;
50281;SDS011;36176;51.506;10.272;2023-04-06T05:48:36;5.90;;;5.27;;
50281;SDS011;36176;51.506;10.272;2023-04-06T05:51:02;7.03;;;5.13;;
50281;SDS011;36176;51.506;10.272;2023-04-06T05:53:32;5.63;;;5.13;;
50281;SDS011;36176;51.506;10.272;2023-04-06T05:56:02;5.87;;;4.90;;
50281;SDS011;36176;51.506;10.272;2023-04-06T05:58:29;5.63;;;5.03;;
50281;SDS011;36176;51.506;10.272;2023-04-06T06:01:00;5.97;;;5.30;;
50281;SDS011;36176;51.506;10.272;2023-04-06T06:03:27;5.90;;;5.00;;
50281;SDS011;36176;51.506;10.272;2023-04-06T06:05:58;6.10;;;5.50;;
50281;SDS011;36176;51.506;10.272;2023-04-06T06:08:26;6.00;;;4.80;;
50281;SDS011;36176;51.506;10.272;2023-04-06T06:10:54;5.60;;;5.00;;
50281;SDS011;36176;51.506;10.272;2023-04-06T06:13:22;6.07;;;5.00;;
50281;SDS011;36176;51.506;10.272;2023-04-06T06:15:50;5.77;;;5.17;;
50281;SDS011;36176;51.506;10.272;2023-04-06T06:18:17;6.00;;;5.50;;
50281;SDS011;36176;51.506;10.272;2023-04-06T06:20:44;5.63;;;5.13;;
50281;SDS011;36176;51.506;10.272;2023-04-06T06:23:11;5.83;;;5.33;;
50281;SDS011;36176;51.506;10.272;2023-04-06T06:25:38;5.43;;;4.93;;
50281;SDS011;36176;51.506;10.272;2023-04-06T06:28:05;7.07;;;5.70;;
50281;SDS011;36176;51.506;10.272;2023-04-06T06:30:32;5.87;;;5.37;;
50281;SDS011;36176;51.506;10.272;2023-04-06T06:33:02;6.30;;;5.70;;
50281;SDS011;36176;51.506;10.272;2023-04-06T06:35:30;6.00;;;5.40;;
50281;SDS011;36176;51.506;10.272;2023-04-06T06:37:57;5.57;;;5.00;;
50281;SDS011;36176;51.506;10.272;2023-04-06T06:40:25;6.10;;;4.70;;
50281;SDS011;36176;51.506;10.272;2023-04-06T06:42:54;5.70;;;5.20;;
50281;SDS011;36176;51.506;10.272;2023-04-06T06:45:21;5.70;;;5.20;;
50281;SDS011;36176;51.506;10.272;2023-04-06T06:47:48;5.47;;;4.97;;
50281;SDS011;36176;51.506;10.272;2023-04-06T06:50:15;5.10;;;4.70;;
50281;SDS011;36176;51.506;10.272;2023-04-06T06:52:42;5.13;;;4.57;;
50281;SDS011;36176;51.506;10.272;2023-04-06T06:55:10;4.93;;;4.53;;
50281;SDS011;36176;51.506;10.272;2023-04-06T06:57:37;5.17;;;4.67;;
50281;SDS011;36176;51.506;10.272;2023-04-06T07:00:05;4.87;;;4.20;;
50281;SDS011;36176;51.506;10.272;2023-04-06T14:38:05;6.22;;;4.50;;
50281;SDS011;36176;51.506;10.272;2023-04-06T14:40:34;4.83;;;4.43;;
50281;SDS011;36176;51.506;10.272;2023-04-06T14:43:03;5.13;;;4.50;;
50281;SDS011;36176;51.506;10.272;2023-04-06T14:45:32;5.00;;;4.20;;
50281;SDS011;36176;51.506;10.272;2023-04-06T14:48:01;6.30;;;4.33;;
50281;SDS011;36176;51.506;10.272;2023-04-06T14:50:28;5.03;;;4.47;;
50281;SDS011;36176;51.506;10.272;2023-04-06T14:52:55;5.80;;;5.20;;
50281;SDS011;36176;51.506;10.272;2023-04-06T14:55:22;4.50;;;4.03;;
50281;SDS011;36176;51.506;10.272;2023-04-06T14:57:52;5.03;;;4.43;;
50281;SDS011;36176;51.506;10.272;2023-04-06T15:00:19;5.07;;;4.30;;
50281;SDS011;36176;51.506;10.272;2023-04-06T15:02:46;5.47;;;3.93;;
50281;SDS011;36176;51.506;10.272;2023-04-06T15:05:13;5.20;;;4.70;;
50281;SDS011;36176;51.506;10.272;2023-04-06T15:07:41;4.80;;;4.30;;
50281;SDS011;36176;51.506;10.272;2023-04-06T15:10:08;6.10;;;5.53;;
50281;SDS011;36176;51.506;10.272;2023-04-06T15:12:37;4.23;;;3.93;;
50281;SDS011;36176;51.506;10.272;2023-04-06T15:15:04;4.43;;;4.03;;
50281;SDS011;36176;51.506;10.272;2023-04-06T15:17:32;4.63;;;3.90;;
50281;SDS011;36176;51.506;10.272;2023-04-06T15:19:59;4.50;;;4.10;;
50281;SDS011;36176;51.506;10.272;2023-04-06T15:22:26;6.17;;;4.33;;
50281;SDS011;36176;51.506;10.272;2023-04-06T15:24:53;4.70;;;4.23;;
50281;SDS011;36176;51.506;10.272;2023-04-06T15:27:20;4.60;;;4.00;;
50281;SDS011;36176;51.506;10.272;2023-04-06T15:29:47;4.33;;;3.83;;
50281;SDS011;36176;51.506;10.272;2023-04-06T15:32:14;4.73;;;4.10;;
50281;SDS011;36176;51.506;10.272;2023-04-06T15:34:41;4.87;;;3.70;;
50281;SDS011;36176;51.506;10.272;2023-04-06T15:37:08;4.20;;;3.80;;
50281;SDS011;36176;51.506;10.272;2023-04-06T15:39:36;6.43;;;4.00;;
50281;SDS011;36176;51.506;10.272;2023-04-06T15:42:03;5.20;;;4.57;;
50281;SDS011;36176;51.506;10.272;2023-04-06T15:44:30;4.23;;;3.63;;
50281;SDS011;36176;51.506;10.272;2023-04-06T15:46:57;4.10;;;3.70;;
50281;SDS011;36176;51.506;10.272;2023-04-06T15:49:24;3.87;;;3.57;;
50281;SDS011;36176;51.506;10.272;2023-04-06T15:51:52;5.63;;;3.60;;
50281;SDS011;36176;51.506;10.272;2023-04-06T15:54:18;4.40;;;3.40;;
50281;SDS011;36176;51.506;10.272;2023-04-06T15:56:47;4.90;;;3.60;;
50281;SDS011;36176;51.506;10.272;2023-04-06T15:59:15;4.70;;;3.50;;
50281;SDS011;36176;51.506;10.272;2023-04-06T16:01:42;4.27;;;3.87;;
50281;SDS011;36176;51.506;10.272;2023-04-06T16:04:11;6.10;;;3.73;;
50281;SDS011;36176;51.506;10.272;2023-04-06T16:06:40;5.83;;;3.87;;
50281;SDS011;36176;51.506;10.272;2023-04-06T16:09:07;3.63;;;3.30;;
50281;SDS011;36176;51.506;10.272;2023-04-06T16:11:34;3.93;;;3.40;;
50281;SDS011;36176;51.506;10.272;2023-04-06T16:14:02;4.60;;;3.20;;
50281;SDS011;36176;51.506;10.272;2023-04-06T16:16:29;4.77;;;3.40;;
50281;SDS011;36176;51.506;10.272;2023-04-06T16:18:56;5.10;;;3.60;;
50281;SDS011;36176;51.506;10.272;2023-04-06T16:21:24;3.40;;;3.10;;
50281;SDS011;36176;51.506;10.272;2023-04-06T16:23:52;5.33;;;3.43;;
50281;SDS011;36176;51.506;10.272;2023-04-06T16:26:20;3.80;;;3.50;;
50281;SDS011;36176;51.506;10.272;2023-04-06T16:28:47;3.60;;;3.30;;
50281;SDS011;36176;51.506;10.272;2023-04-06T16:31:21;4.03;;;3.20;;
50281;SDS011;36176;51.506;10.272;2023-04-06T16:33:50;4.10;;;3.50;;
50281;SDS011;36176;51.506;10.272;2023-04-06T16:36:25;4.67;;;3.20;;
50281;SDS011;36176;51.506;10.272;2023-04-06T16:38:54;3.70;;;3.00;;
50281;SDS011;36176;51.506;10.272;2023-04-06T16:41:22;4.20;;;3.03;;
50281;SDS011;36176;51.506;10.272;2023-04-06T16:43:49;3.73;;;3.07;;
50281;SDS011;36176;51.506;10.272;2023-04-06T16:46:16;6.77;;;3.00;;
50281;SDS011;36176;51.506;10.272;2023-04-06T16:48:43;5.30;;;3.00;;
50281;SDS011;36176;51.506;10.272;2023-04-06T16:51:10;3.60;;;3.03;;
50281;SDS011;36176;51.506;10.272;2023-04-06T16:53:37;3.83;;;3.40;;
50281;SDS011;36176;51.506;10.272;2023-04-06T16:56:05;5.07;;;3.47;;
50281;SDS011;36176;51.506;10.272;2023-04-06T16:58:33;3.87;;;3.40;;
50281;SDS011;36176;51.506;10.272;2023-04-06T17:01:00;4.10;;;3.50;;
50281;SDS011;36176;51.506;10.272;2023-04-06T17:03:27;4.50;;;3.40;;
50281;SDS011;36176;51.506;10.272;2023-04-06T17:05:56;3.83;;;3.43;;
50281;SDS011;36176;51.506;10.272;2023-04-06T17:08:23;4.30;;;3.30;;
50281;SDS011;36176;51.506;10.272;2023-04-06T17:10:50;4.17;;;3.77;;
50281;SDS011;36176;51.506;10.272;2023-04-06T17:13:29;3.97;;;3.60;;
50281;SDS011;36176;51.506;10.272;2023-04-06T17:15:56;3.97;;;3.50;;
50281;SDS011;36176;51.506;10.272;2023-04-06T17:18:23;4.43;;;3.70;;
50281;SDS011;36176;51.506;10.272;2023-04-06T17:20:50;4.67;;;4.13;;
50281;SDS011;36176;51.506;10.272;2023-04-06T17:23:17;5.50;;;4.07;;
50281;SDS011;36176;51.506;10.272;2023-04-06T17:25:46;5.37;;;4.80;;
50281;SDS011;36176;51.506;10.272;2023-04-06T17:28:13;4.87;;;4.30;;
50281;SDS011;36176;51.506;10.272;2023-04-06T17:30:40;4.87;;;3.90;;
50281;SDS011;36176;51.506;10.272;2023-04-06T17:33:08;5.40;;;4.03;;
50281;SDS011;36176;51.506;10.272;2023-04-06T17:35:35;4.33;;;3.93;;
50281;SDS011;36176;51.506;10.272;2023-04-06T17:38:03;6.83;;;4.10;;
50281;SDS011;36176;51.506;10.272;2023-04-06T17:40:30;4.03;;;3.63;;
50281;SDS011;36176;51.506;10.272;2023-04-06T17:42:58;4.40;;;4.00;;
50281;SDS011;36176;51.506;10.272;2023-04-06T17:45:25;4.37;;;3.80;;
50281;SDS011;36176;51.506;10.272;2023-04-06T17:47:52;4.70;;;3.93;;
50281;SDS011;36176;51.506;10.272;2023-04-06T17:50:19;4.37;;;3.80;;
50281;SDS011;36176;51.506;10.272;2023-04-06T17:52:46;4.57;;;3.80;;
50281;SDS011;36176;51.506;10.272;2023-04-06T17:55:15;4.70;;;3.63;;
50281;SDS011;36176;51.506;10.272;2023-04-06T17:57:42;4.20;;;3.80;;
50281;SDS011;36176;51.506;10.272;2023-04-06T18:00:09;4.40;;;4.00;;
50281;SDS011;36176;51.506;10.272;2023-04-06T18:02:37;3.93;;;3.53;;
50281;SDS011;36176;51.506;10.272;2023-04-06T18:05:05;5.67;;;3.80;;
50281;SDS011;36176;51.506;10.272;2023-04-06T18:07:32;5.43;;;4.30;;
50281;SDS011;36176;51.506;10.272;2023-04-06T18:10:00;4.83;;;4.10;;
50281;SDS011;36176;51.506;10.272;2023-04-06T18:12:27;4.50;;;4.10;;
50281;SDS011;36176;51.506;10.272;2023-04-06T18:14:54;4.27;;;3.87;;
50281;SDS011;36176;51.506;10.272;2023-04-06T18:17:21;6.47;;;4.20;;
50281;SDS011;36176;51.506;10.272;2023-04-06T18:19:48;5.17;;;3.60;;
50281;SDS011;36176;51.506;10.272;2023-04-06T18:22:15;4.70;;;4.10;;
50281;SDS011;36176;51.506;10.272;2023-04-06T18:24:42;5.80;;;4.57;;
50281;SDS011;36176;51.506;10.272;2023-04-06T18:27:09;7.33;;;4.33;;
50281;SDS011;36176;51.506;10.272;2023-04-06T18:29:38;4.90;;;4.40;;
50281;SDS011;36176;51.506;10.272;2023-04-06T18:32:06;6.80;;;4.10;;
50281;SDS011;36176;51.506;10.272;2023-04-06T18:34:33;4.40;;;4.00;;
50281;SDS011;36176;51.506;10.272;2023-04-06T18:37:00;5.33;;;4.07;;
50281;SDS011;36176;51.506;10.272;2023-04-06T18:39:27;4.90;;;4.20;;
50281;SDS011;36176;51.506;10.272;2023-04-06T18:41:54;4.60;;;4.10;;
50281;SDS011;36176;51.506;10.272;2023-04-06T18:44:22;4.87;;;4.23;;
50281;SDS011;36176;51.506;10.272;2023-04-06T18:46:49;6.40;;;4.47;;
50281;SDS011;36176;51.506;10.272;2023-04-06T18:49:20;5.07;;;4.57;;
50281;SDS011;36176;51.506;10.272;2023-04-06T18:51:47;5.43;;;4.90;;
50281;SDS011;36176;51.506;10.272;2023-04-06T18:54:14;5.17;;;4.50;;
50281;SDS011;36176;51.506;10.272;2023-04-06T18:56:41;6.60;;;5.57;;
50281;SDS011;36176;51.506;10.272;2023-04-06T18:59:08;7.00;;;5.10;;
50281;SDS011;36176;51.506;10.272;2023-04-06T19:01:36;6.97;;;5.27;;
50281;SDS011;36176;51.506;10.272;2023-04-06T19:04:06;5.60;;;5.10;;
50281;SDS011;36176;51.506;10.272;2023-04-06T19:06:33;7.60;;;5.97;;
50281;SDS011;36176;51.506;10.272;2023-04-06T19:09:01;6.47;;;5.33;;
50281;SDS011;36176;51.506;10.272;2023-04-06T19:11:30;5.60;;;5.10;;
50281;SDS011;36176;51.506;10.272;2023-04-06T19:13:57;6.43;;;5.83;;
50281;SDS011;36176;51.506;10.272;2023-04-06T19:16:24;5.50;;;4.80;;
50281;SDS011;36176;51.506;10.272;2023-04-06T19:18:53;5.47;;;4.97;;
50281;SDS011;36176;51.506;10.272;2023-04-06T19:21:21;5.63;;;5.03;;
50281;SDS011;36176;51.506;10.272;2023-04-06T19:23:51;6.20;;;4.57;;
50281;SDS011;36176;51.506;10.272;2023-04-06T19:26:21;5.97;;;5.20;;
50281;SDS011;36176;51.506;10.272;2023-04-06T19:28:49;5.77;;;5.27;;
50281;SDS011;36176;51.506;10.272;2023-04-06T19:31:17;6.03;;;5.43;;
50281;SDS011;36176;51.506;10.272;2023-04-06T19:33:44;6.63;;;5.60;;
50281;SDS011;36176;51.506;10.272;2023-04-06T19:36:12;6.80;;;5.83;;
50281;SDS011;36176;51.506;10.272;2023-04-06T19:38:39;6.27;;;5.43;;
50281;SDS011;36176;51.506;10.272;2023-04-06T19:41:07;5.73;;;5.20;;
50281;SDS011;36176;51.506;10.272;2023-04-06T19:43:34;6.03;;;5.20;;
50281;SDS011;36176;51.506;10.272;2023-04-06T19:46:01;6.07;;;5.47;;
50281;SDS011;36176;51.506;10.272;2023-04-06T19:48:30;6.63;;;6.00;;
50281;SDS011;36176;51.506;10.272;2023-04-06T19:50:59;6.60;;;5.90;;
50281;SDS011;36176;51.506;10.272;2023-04-06T19:53:26;6.47;;;5.30;;
50281;SDS011;36176;51.506;10.272;2023-04-06T19:55:53;6.60;;;5.73;;
50281;SDS011;36176;51.506;10.272;2023-04-06T19:58:20;7.37;;;5.43;;
50281;SDS011;36176;51.506;10.272;2023-04-06T20:00:47;6.73;;;5.60;;
50281;SDS011;36176;51.506;10.272;2023-04-06T20:03:14;6.23;;;5.63;;
50281;SDS011;36176;51.506;10.272;2023-04-06T20:05:41;6.00;;;5.40;;
50281;SDS011;36176;51.506;10.272;2023-04-06T20:08:08;7.23;;;5.87;;
50281;SDS011;36176;51.506;10.272;2023-04-06T20:10:35;7.43;;;6.63;;
50281;SDS011;36176;51.506;10.272;2023-04-06T20:13:02;6.90;;;6.20;;
50281;SDS011;36176;51.506;10.272;2023-04-06T20:15:29;7.83;;;6.17;;
50281;SDS011;36176;51.506;10.272;2023-04-06T20:17:56;6.67;;;6.07;;
50281;SDS011;36176;51.506;10.272;2023-04-06T20:20:23;8.43;;;6.33;;
50281;SDS011;36176;51.506;10.272;2023-04-06T20:22:50;8.30;;;7.37;;
50281;SDS011;36176;51.506;10.272;2023-04-06T20:25:17;8.63;;;7.33;;
50281;SDS011;36176;51.506;10.272;2023-04-06T20:27:45;14.23;;;12.17;;
50281;SDS011;36176;51.506;10.272;2023-04-06T20:30:14;37.47;;;33.57;;
50281;SDS011;36176;51.506;10.272;2023-04-06T20:32:42;38.07;;;34.00;;
50281;SDS011;36176;51.506;10.272;2023-04-06T20:35:09;22.93;;;20.53;;
50281;SDS011;36176;51.506;10.272;2023-04-06T20:37:37;11.63;;;10.43;;
50281;SDS011;36176;51.506;10.272;2023-04-06T20:40:04;10.27;;;9.00;;
50281;SDS011;36176;51.506;10.272;2023-04-06T20:42:32;9.10;;;8.00;;
50281;SDS011;36176;51.506;10.272;2023-04-06T20:45:00;8.23;;;7.43;;
50281;SDS011;36176;51.506;10.272;2023-04-06T20:47:28;9.97;;;8.63;;
50281;SDS011;36176;51.506;10.272;2023-04-06T20:49:57;9.20;;;7.50;;
50281;SDS011;36176;51.506;10.272;2023-04-06T20:52:24;8.80;;;7.33;;
50281;SDS011;36176;51.506;10.272;2023-04-06T20:54:52;9.03;;;7.17;;
50281;SDS011;36176;51.506;10.272;2023-04-06T20:57:21;7.90;;;7.10;;
50281;SDS011;36176;51.506;10.272;2023-04-06T20:59:48;8.67;;;7.20;;
50281;SDS011;36176;51.506;10.272;2023-04-06T21:02:16;8.77;;;6.83;;
50281;SDS011;36176;51.506;10.272;2023-04-06T21:04:43;8.43;;;7.63;;
50281;SDS011;36176;51.506;10.272;2023-04-06T21:07:11;7.83;;;6.47;;
50281;SDS011;36176;51.506;10.272;2023-04-06T21:09:38;10.47;;;7.57;;
50281;SDS011;36176;51.506;10.272;2023-04-06T21:12:06;8.10;;;7.30;;
50281;SDS011;36176;51.506;10.272;2023-04-06T21:14:33;8.50;;;6.70;;
50281;SDS011;36176;51.506;10.272;2023-04-06T21:17:01;7.83;;;7.03;;
50281;SDS011;36176;51.506;10.272;2023-04-06T21:19:28;9.20;;;7.83;;
50281;SDS011;36176;51.506;10.272;2023-04-06T21:21:55;8.23;;;7.43;;
50281;SDS011;36176;51.506;10.272;2023-04-06T21:24:22;8.50;;;7.10;;
50281;SDS011;36176;51.506;10.272;2023-04-06T21:26:49;8.43;;;7.53;;
50281;SDS011;36176;51.506;10.272;2023-04-06T21:29:16;8.27;;;7.23;;
50281;SDS011;36176;51.506;10.272;2023-04-06T21:31:43;8.67;;;7.30;;
50281;SDS011;36176;51.506;10.272;2023-04-06T21:34:10;8.30;;;7.00;;
50281;SDS011;36176;51.506;10.272;2023-04-06T21:36:37;7.37;;;6.67;;
50281;SDS011;36176;51.506;10.272;2023-04-06T21:39:05;7.93;;;7.10;;
50281;SDS011;36176;51.506;10.272;2023-04-06T21:41:32;7.13;;;6.43;;
50281;SDS011;36176;51.506;10.272;2023-04-06T21:44:00;7.40;;;6.60;;
50281;SDS011;36176;51.506;10.272;2023-04-06T21:46:27;7.30;;;6.60;;
50281;SDS011;36176;51.506;10.272;2023-04-06T21:48:54;8.00;;;6.67;;
50281;SDS011;36176;51.506;10.272;2023-04-06T21:51:21;7.33;;;6.57;;
50281;SDS011;36176;51.506;10.272;2023-04-06T21:53:49;7.77;;;7.07;;
50281;SDS011;36176;51.506;10.272;2023-04-06T21:56:20;8.43;;;6.30;;
50281;SDS011;36176;51.506;10.272;2023-04-06T21:58:49;8.73;;;6.43;;
50281;SDS011;36176;51.506;10.272;2023-04-06T22:01:17;6.63;;;6.03;;
50281;SDS011;36176;51.506;10.272;2023-04-06T22:03:45;7.67;;;5.93;;
50281;SDS011;36176;51.506;10.272;2023-04-06T22:06:14;6.63;;;5.97;;
50281;SDS011;36176;51.506;10.272;2023-04-06T22:08:41;8.57;;;6.20;;
50281;SDS011;36176;51.506;10.272;2023-04-06T22:11:08;7.30;;;5.67;;